Time;durP1;ratioP1;P1;durP2;ratioP2;P2;SDS_P1;SDS_P2;PMS_P1;PMS_P2;Temp;Humidity;BMP_temperature;BMP_pressure;BME280_temperature;BME280_humidity;BME280_pressure;Samples;Min_cycle;Max_cycle;Signal;HPM_P1;HPM_P2
2022/11/17 00:01:38;;;;;;;;;5.00;5.00;;;;;14.23;100.00;98286.19;5071451;28;45414;-78
2022/11/17 00:04:03;;;;;;;;;6.00;5.00;;;;;14.28;100.00;98278.22;5079652;28;45296;-79
2022/11/17 00:06:29;;;;;;;;;6.67;5.00;;;;;14.33;100.00;98286.25;5079663;28;46108;-80
2022/11/17 00:08:54;;;;;;;;;4.00;4.00;;;;;14.30;100.00;98281.41;5079547;28;45391;-79
2022/11/17 00:11:19;;;;;;;;;9.33;5.00;;;;;14.27;100.00;98271.25;5079720;28;45362;-81
2022/11/17 00:16:29;;;;;;;;;7.33;6.00;;;;;14.36;100.00;98272.38;5079248;28;45406;-80
2022/11/17 00:21:38;;;;;;;;;8.00;5.00;;;;;14.44;100.00;98262.25;5079412;28;45434;-79
2022/11/17 00:24:03;;;;;;;;;5.00;3.33;;;;;14.37;100.00;98260.63;5079167;28;45574;-79
2022/11/17 00:26:34;;;;;;;;;5.33;4.00;;;;;14.39;100.00;98269.19;5070731;28;47277;-80
2022/11/17 00:29:04;;;;;;;;;6.33;6.33;;;;;14.43;100.00;98268.66;5079075;28;45225;-80
2022/11/17 00:34:28;;;;;;;;;6.67;5.00;;;;;14.41;100.00;98258.25;5037472;28;45488;-80
2022/11/17 00:36:54;;;;;;;;;7.33;4.67;;;;;14.38;100.00;98264.09;5082695;28;46285;-80
2022/11/17 00:39:21;;;;;;;;;4.67;3.00;;;;;14.32;100.00;98254.44;5082747;28;45611;-79
2022/11/17 00:41:46;;;;;;;;;6.67;5.00;;;;;14.43;100.00;98274.81;5064908;28;45188;-81
2022/11/17 00:44:12;;;;;;;;;7.00;7.00;;;;;14.33;100.00;98262.19;5082560;28;45491;-80
2022/11/17 00:46:38;;;;;;;;;5.00;4.00;;;;;14.45;100.00;98267.34;5082721;28;46139;-78
2022/11/17 00:49:05;;;;;;;;;3.00;3.00;;;;;14.45;100.00;98274.53;5082759;28;45402;-79
2022/11/17 00:51:31;;;;;;;;;5.00;4.00;;;;;14.45;100.00;98274.53;5064340;28;45304;-80
2022/11/17 00:53:56;;;;;;;;;6.33;4.33;;;;;14.38;100.00;98264.09;5082514;28;45241;-79
2022/11/17 00:56:22;;;;;;;;;7.67;6.00;;;;;14.38;100.00;98264.91;5082406;28;46078;-79
2022/11/17 00:58:48;;;;;;;;;3.67;2.67;;;;;14.43;100.00;98274.81;5082316;28;45268;-80
2022/11/17 01:01:13;;;;;;;;;4.33;3.33;;;;;14.30;100.00;98252.03;5082664;28;45342;-80
2022/11/17 01:03:39;;;;;;;;;8.33;4.67;;;;;14.33;100.00;98280.09;5080713;28;45516;-79
2022/11/17 01:06:06;;;;;;;;;4.33;4.00;;;;;14.31;100.00;98255.53;5082308;28;45286;-79
2022/11/17 01:08:33;;;;;;;;;6.33;3.67;;;;;14.32;100.00;98263.28;5063889;28;45320;-80
2022/11/17 01:11:10;;;;;;;;;5.33;5.00;;;;;14.39;100.00;98277.19;5082381;28;45307;-81
2022/11/17 01:13:37;;;;;;;;;2.67;2.00;;;;;14.44;100.00;98259.56;5081683;28;45383;-81
2022/11/17 01:16:12;;;;;;;;;6.00;2.00;;;;;14.45;100.00;98256.66;5081881;28;46258;-80
2022/11/17 01:18:38;;;;;;;;;5.00;4.00;;;;;14.47;100.00;98262.53;5082121;28;45309;-80
2022/11/17 01:21:19;;;;;;;;;5.67;3.67;;;;;14.49;100.00;98262.28;5063923;28;45357;-79
2022/11/17 01:23:46;;;;;;;;;2.00;2.00;;;;;14.27;100.00;98241.88;5081942;28;45386;-79
2022/11/17 01:26:14;;;;;;;;;6.33;4.33;;;;;14.30;100.00;98256.59;5081846;28;46055;-80
2022/11/17 01:28:40;;;;;;;;;5.67;3.00;;;;;14.16;100.00;98262.41;5081451;28;45223;-78
2022/11/17 01:31:17;;;;;;;;;4.33;4.33;;;;;14.20;100.00;98276.84;5081983;28;45305;-79
2022/11/17 01:33:43;;;;;;;;;4.67;2.00;;;;;14.22;100.00;98282.72;5081613;28;45520;-79
2022/11/17 01:36:12;;;;;;;;;5.33;3.67;;;;;14.17;100.00;98287.22;5081646;28;46243;-78
2022/11/17 01:38:38;;;;;;;;;1.00;1.00;;;;;14.18;100.00;98299.50;5081611;28;45304;-78
2022/11/17 01:41:05;;;;;;;;;7.33;6.00;;;;;14.21;100.00;98307.00;5080525;28;45276;-78
2022/11/17 01:43:57;;;;;;;;;3.00;1.00;;;;;14.12;100.00;98283.47;5081488;28;45283;-78
2022/11/17 01:46:39;;;;;;;;;7.00;3.67;;;;;14.12;100.00;98306.69;5081617;28;45356;-79
2022/11/17 01:49:21;;;;;;;;;2.00;2.00;;;;;14.16;100.00;98313.16;5080471;28;45413;-78
2022/11/17 01:51:51;;;;;;;;;6.33;3.33;;;;;14.16;100.00;98307.81;5063400;28;45301;-78
2022/11/17 01:54:21;;;;;;;;;3.00;1.67;;;;;14.17;100.00;98304.06;5081354;28;45225;-79
2022/11/17 01:56:51;;;;;;;;;3.67;3.67;;;;;14.23;100.00;98313.72;5081414;28;45584;-79
2022/11/17 01:59:28;;;;;;;;;5.67;3.67;;;;;14.27;100.00;98338.03;5081205;28;45360;-78
2022/11/17 02:01:54;;;;;;;;;5.33;2.33;;;;;14.29;100.00;98330.59;5081446;28;45338;-78
2022/11/17 02:04:42;;;;;;;;;3.00;0.67;;;;;14.31;100.00;98330.31;5081386;28;45223;-78
2022/11/17 02:07:30;;;;;;;;;2.67;1.33;;;;;14.26;100.00;98339.13;5062927;28;47628;-78
2022/11/17 02:09:57;;;;;;;;;7.33;2.67;;;;;14.22;100.00;98316.66;5063008;28;45363;-79
2022/11/17 02:12:25;;;;;;;;;3.00;1.00;;;;;14.23;100.00;98320.94;5081474;28;45275;-79
2022/11/17 02:14:52;;;;;;;;;2.33;2.00;;;;;14.26;100.00;98345.28;5080951;28;45411;-77
2022/11/17 02:17:20;;;;;;;;;2.00;2.00;;;;;14.26;100.00;98334.59;5062926;28;46374;-80
2022/11/17 02:19:59;;;;;;;;;1.67;1.67;;;;;14.26;100.00;98342.59;5081020;28;45410;-77
2022/11/17 02:23:02;;;;;;;;;3.00;2.33;;;;;14.33;100.00;98347.69;5081265;28;45222;-79
2022/11/17 02:26:03;;;;;;;;;2.00;2.00;;;;;14.32;100.00;98351.44;5081033;28;45438;-80
2022/11/17 02:28:36;;;;;;;;;3.00;2.67;;;;;14.26;100.00;98345.28;5080601;28;45479;-79
2022/11/17 02:31:18;;;;;;;;;3.67;2.67;;;;;14.23;100.00;98331.59;5062777;28;45247;-79
2022/11/17 02:33:58;;;;;;;;;5.33;3.67;;;;;14.29;100.00;98356.47;5081171;28;45493;-78
2022/11/17 02:36:54;;;;;;;;;5.00;3.67;;;;;14.22;100.00;98341.47;5062461;28;45344;-80
2022/11/17 02:39:54;;;;;;;;;3.67;1.00;;;;;14.19;100.00;98342.00;5080686;28;46205;-78
2022/11/17 02:45:28;;;;;;;;;4.00;2.00;;;;;14.05;100.00;98314.94;5080728;28;45410;-78
2022/11/17 02:47:59;;;;;;;;;3.67;2.67;;;;;14.36;100.00;98357.06;5062404;28;46257;-77
2022/11/17 02:50:28;;;;;;;;;2.33;1.67;;;;;14.39;100.00;98357.38;5062425;28;48034;-80
2022/11/17 02:52:53;;;;;;;;;2.67;1.33;;;;;14.39;100.00;98359.22;5061939;28;45643;-79
2022/11/17 02:55:22;;;;;;;;;1.67;1.33;;;;;14.31;100.00;98347.16;5062486;28;45464;-78
2022/11/17 02:57:48;;;;;;;;;3.67;1.00;;;;;14.26;100.00;98339.13;5062217;28;45698;-77
2022/11/17 03:00:16;;;;;;;;;3.00;1.00;;;;;14.34;100.00;98356.53;5061927;28;45413;-79
2022/11/17 03:03:08;;;;;;;;;5.33;3.00;;;;;14.46;100.00;98375.03;5062222;28;45409;-77
2022/11/17 03:05:52;;;;;;;;;3.00;2.33;;;;;14.44;100.00;98361.94;5062138;28;45256;-79
2022/11/17 03:08:52;;;;;;;;;3.33;2.00;;;;;14.26;100.00;98349.78;5061562;28;45560;-78
2022/11/17 03:11:27;;;;;;;;;3.00;1.67;;;;;14.25;100.00;98346.31;5061681;28;47311;-77
2022/11/17 03:14:02;;;;;;;;;4.33;3.67;;;;;14.18;100.00;98345.72;5061610;28;45252;-77
2022/11/17 03:16:53;;;;;;;;;2.67;2.00;;;;;14.35;100.00;98374.16;5061726;28;45395;-79
2022/11/17 03:19:37;;;;;;;;;2.33;2.33;;;;;14.25;100.00;98380.25;5061895;28;45378;-78
2022/11/17 03:22:13;;;;;;;;;1.00;0.00;;;;;14.22;100.00;98362.84;5061748;28;47193;-77
2022/11/17 03:24:49;;;;;;;;;2.33;2.33;;;;;14.16;100.00;98373.78;5061776;28;45257;-78
2022/11/17 03:27:26;;;;;;;;;1.00;1.00;;;;;14.13;100.00;98375.09;5061785;28;45234;-78
2022/11/17 03:29:57;;;;;;;;;2.00;2.00;;;;;14.14;100.00;98398.88;5079947;28;45274;-77
2022/11/17 03:32:25;;;;;;;;;0.00;0.00;;;;;14.10;100.00;98388.97;5061684;28;48032;-79
2022/11/17 03:34:56;;;;;;;;;2.00;0.33;;;;;14.26;100.00;98417.41;5061712;28;45345;-77
2022/11/17 03:37:27;;;;;;;;;0.33;0.00;;;;;14.16;100.00;98387.13;5061896;28;45295;-78
2022/11/17 03:40:00;;;;;;;;;4.33;0.67;;;;;14.19;100.00;98400.75;5061888;28;45533;-77
2022/11/17 03:42:30;;;;;;;;;3.00;1.00;;;;;14.12;100.00;98392.97;5061514;28;47705;-79
2022/11/17 03:45:05;;;;;;;;;0.00;0.00;;;;;14.26;100.00;98424.59;5061447;28;45260;-76
2022/11/17 03:47:33;;;;;;;;;6.00;1.00;;;;;14.08;100.00;98407.91;5061761;28;45284;-77
2022/11/17 03:50:10;;;;;;;;;0.00;0.00;;;;;14.22;99.90;98426.19;5061736;28;45794;-78
2022/11/17 03:52:37;;;;;;;;;0.00;0.00;;;;;14.21;100.00;98453.94;5060721;28;45443;-78
2022/11/17 03:55:06;;;;;;;;;0.33;0.00;;;;;14.10;100.00;98439.72;5061600;28;45968;-77
2022/11/17 03:57:45;;;;;;;;;1.67;1.00;;;;;14.09;99.52;98438.88;5061323;28;45357;-76
2022/11/17 04:00:15;;;;;;;;;0.33;0.00;;;;;14.15;99.61;98461.09;5060307;28;45320;-78
2022/11/17 04:02:42;;;;;;;;;0.00;0.00;;;;;14.10;99.69;98448.50;5054472;28;45451;-77
2022/11/17 04:05:09;;;;;;;;;1.00;1.00;;;;;14.09;97.70;98446.09;5063019;28;45371;-78
2022/11/17 04:07:40;;;;;;;;;1.33;0.00;;;;;14.03;99.27;98450.59;5064987;28;45498;-77
2022/11/17 04:10:14;;;;;;;;;1.00;0.00;;;;;14.03;99.37;98455.94;5064780;28;47118;-77
2022/11/17 04:18:08;;;;;;;;;1.33;0.00;;;;;14.08;97.25;98468.53;5083237;28;45343;-77
2022/11/17 04:20:36;;;;;;;;;1.00;0.33;;;;;14.05;96.48;98471.69;5064790;28;46280;-78
2022/11/17 04:23:11;;;;;;;;;0.00;0.00;;;;;14.24;97.38;98507.66;5064590;28;48188;-77
2022/11/17 04:28:36;;;;;;;;;3.00;0.00;;;;;14.05;96.70;98491.22;5082470;28;45343;-78
2022/11/17 04:31:07;;;;;;;;;0.00;0.00;;;;;14.17;97.21;98525.78;5064467;28;45297;-78
2022/11/17 04:33:33;;;;;;;;;0.67;0.33;;;;;14.06;96.34;98500.00;5064399;28;45892;-80
2022/11/17 04:35:59;;;;;;;;;0.00;0.00;;;;;14.07;96.87;98528.34;5064698;28;45257;-77
2022/11/17 04:38:24;;;;;;;;;0.33;0.33;;;;;14.00;97.87;98526.69;5064413;28;45378;-77
2022/11/17 04:43:43;;;;;;;;;1.33;0.33;;;;;13.85;99.52;98531.84;5082498;28;45320;-78
2022/11/17 04:46:08;;;;;;;;;0.00;0.00;;;;;13.72;100.00;98535.72;5064531;28;45371;-80
2022/11/17 04:48:34;;;;;;;;;0.00;0.00;;;;;13.67;100.00;98554.31;5082863;28;45262;-79
2022/11/17 04:50:59;;;;;;;;;1.00;1.00;;;;;13.69;100.00;98571.72;5082709;28;45284;-80
2022/11/17 04:53:24;;;;;;;;;1.00;0.00;;;;;13.45;100.00;98547.91;5064107;28;46986;-77
2022/11/17 04:55:50;;;;;;;;;0.33;0.33;;;;;13.29;100.00;98544.22;5064220;28;45276;-79
2022/11/17 04:58:16;;;;;;;;;0.00;0.00;;;;;13.25;100.00;98538.56;5064123;28;45245;-79
2022/11/17 05:00:41;;;;;;;;;2.33;0.33;;;;;13.28;100.00;98547.13;5082374;28;45342;-78
2022/11/17 05:03:07;;;;;;;;;0.00;0.00;;;;;13.27;100.00;98554.34;5063134;28;47684;-78
2022/11/17 05:05:32;;;;;;;;;0.33;0.00;;;;;13.28;100.00;98571.94;5063917;28;46068;-77
2022/11/17 05:07:58;;;;;;;;;2.00;0.33;;;;;13.32;100.00;98581.06;5064029;28;45328;-77
2022/11/17 05:13:20;;;;;;;;;0.33;0.33;;;;;13.44;100.00;98607.66;5081679;28;45965;-79
2022/11/17 05:18:34;;;;;;;;;1.00;0.00;;;;;13.37;100.00;98589.16;5082297;28;45285;-77
2022/11/17 05:21:10;;;;;;;;;0.00;0.00;;;;;13.39;100.00;98594.25;5063918;28;45388;-77
2022/11/17 05:23:55;;;;;;;;;1.33;1.33;;;;;13.55;100.00;98610.47;5081994;28;46214;-79
2022/11/17 05:26:23;;;;;;;;;0.00;0.00;;;;;13.45;100.00;98595.94;5063689;28;45301;-78
2022/11/17 05:28:48;;;;;;;;;0.00;0.00;;;;;13.54;100.00;98614.22;5063611;28;45350;-78
2022/11/17 05:31:14;;;;;;;;;0.67;0.33;;;;;13.44;100.00;98607.66;5063638;28;45411;-78
2022/11/17 05:33:40;;;;;;;;;0.00;0.00;;;;;13.45;100.00;98611.13;5082055;28;45377;-77
2022/11/17 05:36:09;;;;;;;;;0.33;0.33;;;;;13.47;100.00;98614.38;5063536;28;45360;-78
2022/11/17 05:38:35;;;;;;;;;0.67;0.33;;;;;13.44;100.00;98598.84;5082073;28;45161;-77
2022/11/17 05:41:01;;;;;;;;;0.33;0.33;;;;;13.65;100.00;98626.66;5063548;28;46037;-77
2022/11/17 05:43:27;;;;;;;;;0.00;0.00;;;;;13.53;100.00;98624.06;5063365;28;45452;-77
2022/11/17 05:45:53;;;;;;;;;0.00;0.00;;;;;13.69;100.00;98624.28;5063575;28;45368;-76
2022/11/17 05:48:19;;;;;;;;;0.33;0.00;;;;;13.69;100.00;98645.66;5063515;28;45355;-77
2022/11/17 05:50:44;;;;;;;;;0.67;0.00;;;;;13.71;100.00;98643.56;5081596;28;46192;-78
2022/11/17 05:53:13;;;;;;;;;1.00;0.00;;;;;13.62;100.00;98643.16;5063155;28;48757;-77
2022/11/17 05:55:38;;;;;;;;;0.33;0.33;;;;;13.72;100.00;98661.19;5063445;28;45286;-78
2022/11/17 05:58:15;;;;;;;;;1.33;0.33;;;;;13.72;100.00;98661.19;5063116;28;45319;-79
2022/11/17 06:00:41;;;;;;;;;2.33;0.67;;;;;13.57;99.79;98657.25;5057908;28;45417;-77
2022/11/17 06:03:14;;;;;;;;;1.00;0.00;;;;;13.70;100.00;98672.09;5060036;28;47667;-77
2022/11/17 06:05:39;;;;;;;;;0.00;0.00;;;;;13.67;100.00;98683.25;5063068;28;45629;-77
2022/11/17 06:08:05;;;;;;;;;2.67;1.00;;;;;13.71;100.00;98686.25;5063119;28;45257;-77
2022/11/17 06:10:33;;;;;;;;;2.33;0.67;;;;;13.63;100.00;98679.47;5063077;28;45506;-78
2022/11/17 06:12:58;;;;;;;;;2.00;0.33;;;;;13.63;100.00;98687.47;5062713;28;48859;-78
2022/11/17 06:15:23;;;;;;;;;1.33;1.33;;;;;13.54;100.00;98678.25;5062927;28;45285;-77
2022/11/17 06:17:58;;;;;;;;;1.33;1.33;;;;;13.55;100.00;98683.34;5063136;28;45479;-78
2022/11/17 06:20:28;;;;;;;;;0.33;0.33;;;;;13.52;100.00;98689.19;5062026;28;47503;-79
2022/11/17 06:22:59;;;;;;;;;2.00;0.67;;;;;13.53;100.00;98698.00;5062876;28;48167;-77
2022/11/17 06:25:25;;;;;;;;;4.67;2.00;;;;;13.41;100.00;98679.38;5062864;28;45445;-78
2022/11/17 06:27:52;;;;;;;;;2.00;1.33;;;;;13.51;100.00;98692.91;5061886;28;45398;-78
2022/11/17 06:30:17;;;;;;;;;1.33;1.33;;;;;13.54;100.00;98699.63;5062724;28;45404;-77
2022/11/17 06:32:44;;;;;;;;;0.33;0.33;;;;;13.53;100.00;98698.78;5080973;28;45347;-78
2022/11/17 06:35:13;;;;;;;;;2.67;2.00;;;;;13.55;100.00;98712.72;5062959;28;45282;-78
2022/11/17 06:37:38;;;;;;;;;3.33;0.00;;;;;13.55;100.00;98711.91;5062451;28;45282;-76
2022/11/17 06:40:04;;;;;;;;;3.33;1.33;;;;;13.43;100.00;98691.41;5080863;28;45612;-78
2022/11/17 06:45:16;;;;;;;;;2.00;0.33;;;;;13.41;100.00;98692.72;5080738;28;45442;-77
2022/11/17 06:47:42;;;;;;;;;2.67;1.67;;;;;13.44;100.00;98692.25;5062548;28;45367;-78
2022/11/17 06:50:10;;;;;;;;;0.33;0.33;;;;;13.41;100.00;98693.50;5062281;28;45531;-78
2022/11/17 06:52:36;;;;;;;;;0.33;0.33;;;;;13.38;100.00;98691.38;5062254;28;45716;-78
2022/11/17 06:55:02;;;;;;;;;1.67;1.67;;;;;13.43;100.00;98706.63;5062398;28;45276;-77
2022/11/17 06:57:28;;;;;;;;;1.67;1.33;;;;;13.49;100.00;98724.31;5062456;28;45353;-77
2022/11/17 06:59:54;;;;;;;;;1.33;1.33;;;;;13.32;100.00;98703.00;5062123;28;45553;-78
2022/11/17 07:02:19;;;;;;;;;2.00;2.00;;;;;13.38;100.00;98716.16;5061928;28;45590;-77
2022/11/17 07:04:48;;;;;;;;;3.67;1.00;;;;;13.35;100.00;98705.97;5080471;28;45334;-77
2022/11/17 07:07:13;;;;;;;;;4.33;4.00;;;;;13.31;100.00;98715.53;5062152;28;45247;-78
2022/11/17 07:09:38;;;;;;;;;6.33;3.33;;;;;13.36;100.00;98733.47;5062225;28;45472;-76
2022/11/17 07:12:04;;;;;;;;;4.00;2.33;;;;;13.25;100.00;98727.16;5080175;28;46569;-78
2022/11/17 07:14:29;;;;;;;;;2.00;2.00;;;;;13.31;100.00;98746.72;5061976;28;45276;-79
2022/11/17 07:16:55;;;;;;;;;1.00;1.00;;;;;13.31;100.00;98746.72;5061533;28;45479;-77
2022/11/17 07:19:21;;;;;;;;;1.33;1.00;;;;;13.24;100.00;98738.88;5058472;28;45441;-77
2022/11/17 07:21:46;;;;;;;;;1.00;0.33;;;;;13.10;100.00;98723.19;5074794;27;45418;-77
2022/11/17 07:24:11;;;;;;;;;1.67;1.67;;;;;13.13;100.00;98732.56;5082400;27;45936;-78
2022/11/17 07:26:37;;;;;;;;;2.67;0.67;;;;;13.05;100.00;98724.97;5074525;27;45445;-77
2022/11/17 07:29:02;;;;;;;;;2.67;2.67;;;;;13.26;100.00;98758.13;5061055;28;55277;-76
2022/11/17 07:31:27;;;;;;;;;2.00;2.00;;;;;13.25;100.00;98759.16;5080072;28;45363;-77
2022/11/17 07:33:53;;;;;;;;;3.33;3.00;;;;;13.20;100.00;98743.88;5079585;28;60379;-77
2022/11/17 07:36:18;;;;;;;;;1.67;1.67;;;;;13.12;100.00;98730.94;5079751;28;47069;-77
2022/11/17 07:38:44;;;;;;;;;1.33;1.33;;;;;13.24;100.00;98747.69;5079962;28;45371;-78
2022/11/17 07:41:12;;;;;;;;;4.00;2.00;;;;;13.31;100.00;98746.72;5078855;28;47084;-79
2022/11/17 07:43:38;;;;;;;;;2.00;1.00;;;;;13.18;100.00;98719.31;5077690;28;45437;-77
2022/11/17 07:46:09;;;;;;;;;5.00;4.00;;;;;13.36;100.00;98757.47;5079162;28;45302;-78
2022/11/17 07:48:35;;;;;;;;;2.00;1.67;;;;;13.38;100.00;98748.19;5079080;28;45413;-77
2022/11/17 07:51:02;;;;;;;;;3.33;3.33;;;;;13.49;100.00;98745.69;5076206;28;45519;-78
2022/11/17 07:53:27;;;;;;;;;5.00;4.00;;;;;13.51;100.00;98756.97;5060972;28;45491;-80
2022/11/17 07:55:53;;;;;;;;;3.33;2.67;;;;;13.44;100.00;98751.72;5085317;27;45383;-78
2022/11/17 07:58:18;;;;;;;;;4.33;3.00;;;;;13.59;100.00;98769.09;5056461;28;46985;-79
2022/11/17 08:00:43;;;;;;;;;4.00;3.33;;;;;13.60;100.00;98770.69;5076624;28;68275;-78
2022/11/17 08:03:09;;;;;;;;;2.33;1.67;;;;;13.65;100.00;98778.00;5077116;28;61990;-77
2022/11/17 08:05:36;;;;;;;;;2.00;2.00;;;;;13.63;100.00;98762.22;5060392;28;45289;-78
2022/11/17 08:08:02;;;;;;;;;4.00;3.00;;;;;13.66;100.00;98776.94;5078122;28;45421;-79
2022/11/17 08:10:31;;;;;;;;;4.33;3.00;;;;;13.70;100.00;98770.03;5078077;28;45988;-80
2022/11/17 08:12:59;;;;;;;;;2.33;1.33;;;;;13.81;100.00;98768.34;5077999;28;45373;-80
2022/11/17 08:15:25;;;;;;;;;1.00;0.67;;;;;13.85;100.00;98793.50;5079107;28;45338;-77
2022/11/17 08:17:55;;;;;;;;;1.00;1.00;;;;;13.82;100.00;98784.13;5079069;28;45340;-77
2022/11/17 08:20:22;;;;;;;;;2.33;2.00;;;;;13.87;100.00;98791.41;5077972;28;46360;-78
2022/11/17 08:22:52;;;;;;;;;4.00;2.00;;;;;13.88;100.00;98796.50;5060801;28;45396;-78
2022/11/17 08:25:19;;;;;;;;;6.00;3.00;;;;;13.91;100.00;98800.53;5060369;28;45344;-77
2022/11/17 08:27:47;;;;;;;;;6.33;3.00;;;;;13.94;100.00;98810.75;5051253;28;46346;-78
2022/11/17 08:30:13;;;;;;;;;1.33;1.33;;;;;13.82;100.00;98796.66;5060972;28;47373;-76
2022/11/17 08:32:46;;;;;;;;;1.33;1.00;;;;;13.95;100.00;98808.88;5060272;28;45281;-76
2022/11/17 08:35:12;;;;;;;;;1.33;1.33;;;;;13.94;100.00;98815.25;5057951;28;45576;-76
2022/11/17 08:37:39;;;;;;;;;3.00;1.00;;;;;13.91;100.00;98800.53;5060118;27;46022;-78
2022/11/17 08:40:05;;;;;;;;;3.67;2.67;;;;;13.99;100.00;98813.50;5060928;28;45719;-78
2022/11/17 08:42:30;;;;;;;;;1.67;1.33;;;;;13.87;100.00;98788.75;5060778;28;45878;-78
2022/11/17 08:44:56;;;;;;;;;0.00;0.00;;;;;13.88;100.00;98801.84;5076908;28;45384;-77
2022/11/17 08:47:21;;;;;;;;;1.67;1.67;;;;;13.96;100.00;98808.66;5070809;28;45355;-79
2022/11/17 08:49:47;;;;;;;;;2.00;1.00;;;;;14.05;100.00;98818.91;5060132;27;45567;-78
2022/11/17 08:52:12;;;;;;;;;2.67;1.67;;;;;13.99;100.00;98788.66;5084058;27;45823;-79
2022/11/17 08:54:38;;;;;;;;;2.00;2.00;;;;;14.08;100.00;98797.03;5103016;27;45154;-76
2022/11/17 08:57:03;;;;;;;;;1.00;1.00;;;;;14.10;100.00;98801.09;5084199;27;45333;-75
2022/11/17 08:59:29;;;;;;;;;2.00;1.00;;;;;14.21;100.00;98815.41;5084418;27;45678;-76
2022/11/17 09:01:54;;;;;;;;;1.00;1.00;;;;;14.30;100.00;98813.13;5068876;28;45380;-78
2022/11/17 09:04:20;;;;;;;;;3.33;2.00;;;;;14.22;100.00;98797.53;5063731;28;45389;-77
2022/11/17 09:06:48;;;;;;;;;1.00;1.00;;;;;14.34;100.00;98814.22;5061537;28;45300;-75
2022/11/17 09:09:13;;;;;;;;;4.00;3.00;;;;;14.32;100.00;98791.50;5063221;28;47813;-77
2022/11/17 09:11:39;;;;;;;;;1.67;1.67;;;;;14.36;100.00;98795.28;5057109;28;45564;-77
2022/11/17 09:14:06;;;;;;;;;3.33;1.00;;;;;14.51;100.00;98814.19;5081590;28;45400;-79
2022/11/17 09:16:31;;;;;;;;;7.00;3.00;;;;;14.42;100.00;98798.84;5061392;28;45403;-78
2022/11/17 09:18:57;;;;;;;;;2.33;2.33;;;;;14.39;100.00;98797.47;5081101;27;46593;-79
2022/11/17 09:21:24;;;;;;;;;3.67;2.67;;;;;14.55;100.00;98819.88;5079404;28;45307;-76
2022/11/17 09:23:50;;;;;;;;;3.00;2.00;;;;;14.39;100.00;98784.09;5081191;28;45497;-78
2022/11/17 09:26:16;;;;;;;;;2.00;1.00;;;;;14.45;100.00;98806.34;5066333;27;45503;-78
2022/11/17 09:28:42;;;;;;;;;7.00;4.00;;;;;14.35;100.00;98791.00;5080562;27;45872;-79
2022/11/17 09:31:13;;;;;;;;;3.67;3.67;;;;;14.45;100.00;98828.56;5069982;27;45296;-77
2022/11/17 09:33:39;;;;;;;;;5.33;4.00;;;;;14.26;100.00;98807.47;5083845;27;45434;-76
2022/11/17 09:36:06;;;;;;;;;6.67;2.00;;;;;14.34;100.00;98834.81;5083891;27;45728;-76
2022/11/17 09:38:32;;;;;;;;;6.00;3.67;;;;;14.31;100.00;98829.97;5083945;27;47727;-77
2022/11/17 09:40:58;;;;;;;;;5.67;4.00;;;;;14.21;100.00;98823.41;5101601;27;45264;-78
2022/11/17 09:43:30;;;;;;;;;5.00;3.67;;;;;14.18;100.00;98823.09;5100833;27;45457;-76
2022/11/17 09:46:11;;;;;;;;;4.00;2.33;;;;;14.11;100.00;98831.28;5101075;27;45398;-77
2022/11/17 09:48:47;;;;;;;;;2.00;2.00;;;;;13.98;100.00;98833.22;5100858;27;45386;-76
2022/11/17 09:51:20;;;;;;;;;3.33;3.00;;;;;13.71;100.00;98825.84;5083038;27;46155;-76
2022/11/17 09:53:56;;;;;;;;;0.33;0.33;;;;;13.50;100.00;98854.88;5082899;27;45363;-76
2022/11/17 09:56:21;;;;;;;;;0.00;0.00;;;;;13.10;100.00;98829.03;5083182;27;46492;-76
2022/11/17 09:59:00;;;;;;;;;0.00;0.00;;;;;12.89;100.00;98868.66;5100595;27;46116;-76
2022/11/17 10:01:27;;;;;;;;;0.33;0.33;;;;;12.42;100.00;98848.22;5069450;28;45501;-77
2022/11/17 10:03:54;;;;;;;;;2.00;1.00;;;;;12.24;100.00;98893.38;5078580;28;45760;-76
2022/11/17 10:06:23;;;;;;;;;1.00;1.00;;;;;12.06;100.00;98874.81;5061151;28;46268;-76
2022/11/17 10:09:18;;;;;;;;;1.67;1.67;;;;;12.02;100.00;98881.63;5079725;28;45391;-76
2022/11/17 10:11:44;;;;;;;;;1.00;1.00;;;;;12.00;100.00;98882.66;5034781;28;45349;-76
2022/11/17 10:14:14;;;;;;;;;1.67;1.00;;;;;12.07;100.00;98881.78;5080641;28;45430;-76
2022/11/17 10:16:57;;;;;;;;;1.00;1.00;;;;;12.12;100.00;98868.56;5081110;28;45353;-76
2022/11/17 10:19:28;;;;;;;;;2.33;2.00;;;;;12.17;100.00;98870.56;5081093;28;45385;-76
2022/11/17 10:22:00;;;;;;;;;5.00;3.00;;;;;12.26;100.00;98874.50;5081223;28;45346;-76
2022/11/17 10:24:42;;;;;;;;;4.00;3.33;;;;;12.37;100.00;98879.00;5081358;28;45147;-76
2022/11/17 10:27:16;;;;;;;;;4.67;4.67;;;;;12.52;100.00;98880.41;5080692;28;45358;-76
2022/11/17 10:29:58;;;;;;;;;5.33;4.00;;;;;12.72;100.00;98888.03;5080630;28;45354;-76
2022/11/17 10:32:33;;;;;;;;;3.67;3.00;;;;;12.88;100.00;98872.38;5080611;28;45690;-76
2022/11/17 10:35:20;;;;;;;;;3.67;3.67;;;;;12.98;100.00;98875.22;5062774;28;45359;-77
2022/11/17 10:37:51;;;;;;;;;6.00;4.67;;;;;13.12;100.00;98869.63;5080623;28;45434;-76
2022/11/17 10:40:21;;;;;;;;;3.00;2.00;;;;;13.20;100.00;98877.25;5080831;28;45313;-77
2022/11/17 10:43:16;;;;;;;;;3.67;3.00;;;;;13.23;100.00;98868.78;5080603;28;45355;-75
2022/11/17 10:45:50;;;;;;;;;3.00;3.00;;;;;13.19;100.00;98856.97;5062585;28;45306;-76
2022/11/17 10:48:35;;;;;;;;;4.00;3.00;;;;;13.26;100.00;98867.50;5063750;28;46151;-77
2022/11/17 10:51:08;;;;;;;;;3.00;3.00;;;;;13.32;100.00;98861.19;5078344;28;46380;-76
2022/11/17 10:53:39;;;;;;;;;3.00;1.33;;;;;13.36;100.00;98857.03;5061672;28;45497;-76
2022/11/17 10:56:14;;;;;;;;;2.33;2.00;;;;;13.40;100.00;98849.34;5061664;28;45424;-76
2022/11/17 10:59:13;;;;;;;;;1.33;0.33;;;;;13.44;100.00;98849.69;5080796;27;45527;-76
2022/11/17 11:01:43;;;;;;;;;2.00;1.67;;;;;13.42;100.00;98847.25;5073021;28;45340;-77
2022/11/17 11:04:25;;;;;;;;;3.00;2.67;;;;;13.54;100.00;98854.41;5080070;28;45325;-76
2022/11/17 11:07:12;;;;;;;;;1.00;1.00;;;;;13.58;100.00;98848.34;5080264;28;45882;-76
2022/11/17 11:09:59;;;;;;;;;6.00;2.33;;;;;13.60;100.00;98840.09;5061785;28;46276;-76
2022/11/17 11:12:35;;;;;;;;;2.33;2.33;;;;;13.68;100.00;98845.03;5080104;28;45253;-76
2022/11/17 11:15:01;;;;;;;;;1.33;1.33;;;;;13.68;100.00;98833.56;5079727;28;45330;-76
2022/11/17 11:17:28;;;;;;;;;2.67;2.00;;;;;13.72;100.00;98835.50;5080433;28;45481;-77
2022/11/17 11:19:54;;;;;;;;;2.00;2.00;;;;;13.91;100.00;98831.78;5061193;28;47153;-76
2022/11/17 11:22:30;;;;;;;;;3.00;1.00;;;;;13.99;100.00;98837.53;5080149;28;45469;-77
2022/11/17 11:25:07;;;;;;;;;2.67;2.33;;;;;14.02;100.00;98836.22;5061817;28;45394;-76
2022/11/17 11:28:13;;;;;;;;;1.33;0.67;;;;;14.09;100.00;98839.53;5080254;28;45392;-76
2022/11/17 11:31:00;;;;;;;;;2.67;1.33;;;;;14.16;100.00;98826.03;5061668;28;46449;-76
2022/11/17 11:33:44;;;;;;;;;0.67;0.67;;;;;14.29;100.00;98832.06;5070626;27;46126;-77
2022/11/17 11:36:31;;;;;;;;;3.67;3.00;;;;;14.36;100.00;98824.69;5059846;28;45335;-76
2022/11/17 11:39:11;;;;;;;;;5.00;2.67;;;;;14.20;100.00;98792.41;5060151;28;45185;-77
2022/11/17 11:41:52;;;;;;;;;1.67;1.67;;;;;14.58;100.00;98829.25;5077971;27;45557;-78
2022/11/17 11:44:45;;;;;;;;;2.00;2.00;;;;;14.64;100.00;98837.06;5079519;28;45408;-76
2022/11/17 11:47:38;;;;;;;;;3.00;3.00;;;;;14.63;100.00;98829.31;5079826;28;45300;-76
2022/11/17 11:50:27;;;;;;;;;4.00;1.00;;;;;14.60;100.00;98830.63;5080842;27;45452;-78
2022/11/17 11:53:04;;;;;;;;;1.33;1.00;;;;;14.61;100.00;98828.75;5086554;27;45413;-76
2022/11/17 11:55:36;;;;;;;;;2.33;2.00;;;;;14.61;100.00;98831.44;5080257;27;48162;-77
2022/11/17 11:58:23;;;;;;;;;0.67;0.67;;;;;14.49;100.00;98816.31;5078110;27;45437;-77
2022/11/17 12:00:54;;;;;;;;;1.33;0.00;;;;;14.51;100.00;98830.25;5061596;28;45319;-78
2022/11/17 12:03:24;;;;;;;;;2.00;0.33;;;;;14.48;100.00;98838.75;5079477;28;45291;-77
2022/11/17 12:09:42;;;;;;;;;0.67;0.67;;;;;14.46;100.00;98838.19;5005989;28;45374;-77
2022/11/17 12:12:14;;;;;;;;;0.00;0.00;;;;;14.38;100.00;98812.72;5073361;28;45633;-78
2022/11/17 12:15:07;;;;;;;;;1.67;1.00;;;;;14.58;100.00;98827.38;5059483;27;47276;-79
2022/11/17 12:17:33;;;;;;;;;11.67;11.67;;;;;14.63;100.00;98824.78;5085647;27;45517;-81
2022/11/17 12:20:01;;;;;;;;;1.00;1.00;;;;;14.64;100.00;98821.03;5098802;27;45619;-77